sensor_id;sensor_type;location;lat;lon;timestamp;temperature;humidity
52565;DHT22;38460;53.106;7.004;2023-08-21T00:00:03;16.80;99.90
52565;DHT22;38460;53.106;7.004;2023-08-21T00:02:30;16.80;99.90
52565;DHT22;38460;53.106;7.004;2023-08-21T00:04:56;16.80;99.90
52565;DHT22;38460;53.106;7.004;2023-08-21T00:07:22;16.70;99.90
52565;DHT22;38460;53.106;7.004;2023-08-21T00:09:48;16.70;99.90
52565;DHT22;38460;53.106;7.004;2023-08-21T00:12:14;16.60;99.90
52565;DHT22;38460;53.106;7.004;2023-08-21T00:14:40;16.60;99.90
52565;DHT22;38460;53.106;7.004;2023-08-21T00:17:05;16.40;99.90
52565;DHT22;38460;53.106;7.004;2023-08-21T00:19:32;16.40;99.90
52565;DHT22;38460;53.106;7.004;2023-08-21T00:21:58;16.30;99.90
52565;DHT22;38460;53.106;7.004;2023-08-21T00:24:23;16.30;99.90
52565;DHT22;38460;53.106;7.004;2023-08-21T00:26:49;16.30;99.90
52565;DHT22;38460;53.106;7.004;2023-08-21T00:29:15;16.30;99.90
52565;DHT22;38460;53.106;7.004;2023-08-21T00:31:41;16.30;99.90
52565;DHT22;38460;53.106;7.004;2023-08-21T00:34:06;16.20;99.90
52565;DHT22;38460;53.106;7.004;2023-08-21T00:36:32;16.20;99.90
52565;DHT22;38460;53.106;7.004;2023-08-21T00:38:58;16.20;99.90
52565;DHT22;38460;53.106;7.004;2023-08-21T00:41:24;16.20;99.90
52565;DHT22;38460;53.106;7.004;2023-08-21T00:43:49;16.20;99.90
52565;DHT22;38460;53.106;7.004;2023-08-21T00:46:15;16.20;99.90
52565;DHT22;38460;53.106;7.004;2023-08-21T00:48:43;16.10;99.90
52565;DHT22;38460;53.106;7.004;2023-08-21T00:51:09;16.10;99.90
52565;DHT22;38460;53.106;7.004;2023-08-21T00:53:36;16.00;99.90
52565;DHT22;38460;53.106;7.004;2023-08-21T00:56:02;16.00;99.90
52565;DHT22;38460;53.106;7.004;2023-08-21T00:58:28;16.00;99.90
52565;DHT22;38460;53.106;7.004;2023-08-21T01:00:54;16.00;99.90
52565;DHT22;38460;53.106;7.004;2023-08-21T01:03:20;15.90;99.90
52565;DHT22;38460;53.106;7.004;2023-08-21T01:05:46;15.90;99.90
52565;DHT22;38460;53.106;7.004;2023-08-21T01:08:16;15.90;99.90
52565;DHT22;38460;53.106;7.004;2023-08-21T01:13:42;15.90;99.90
52565;DHT22;38460;53.106;7.004;2023-08-21T01:16:10;15.90;99.90
52565;DHT22;38460;53.106;7.004;2023-08-21T01:18:37;15.90;99.90
52565;DHT22;38460;53.106;7.004;2023-08-21T01:21:05;15.80;99.90
52565;DHT22;38460;53.106;7.004;2023-08-21T01:23:31;15.80;99.90
52565;DHT22;38460;53.106;7.004;2023-08-21T01:25:58;15.80;99.90
52565;DHT22;38460;53.106;7.004;2023-08-21T01:28:24;15.80;99.90
52565;DHT22;38460;53.106;7.004;2023-08-21T01:30:52;15.70;99.90
52565;DHT22;38460;53.106;7.004;2023-08-21T01:33:21;15.70;99.90
52565;DHT22;38460;53.106;7.004;2023-08-21T01:35:48;15.70;99.90
52565;DHT22;38460;53.106;7.004;2023-08-21T01:38:15;15.60;99.90
52565;DHT22;38460;53.106;7.004;2023-08-21T01:40:40;15.60;99.90
52565;DHT22;38460;53.106;7.004;2023-08-21T01:43:06;15.60;99.90
52565;DHT22;38460;53.106;7.004;2023-08-21T01:45:32;15.60;99.90
52565;DHT22;38460;53.106;7.004;2023-08-21T01:47:57;15.60;99.90
52565;DHT22;38460;53.106;7.004;2023-08-21T01:50:23;15.60;99.90
52565;DHT22;38460;53.106;7.004;2023-08-21T01:52:49;15.50;99.90
52565;DHT22;38460;53.106;7.004;2023-08-21T01:55:15;15.50;99.90
52565;DHT22;38460;53.106;7.004;2023-08-21T01:57:40;15.50;99.90
52565;DHT22;38460;53.106;7.004;2023-08-21T02:00:08;15.50;99.90
52565;DHT22;38460;53.106;7.004;2023-08-21T02:02:34;15.50;99.90
52565;DHT22;38460;53.106;7.004;2023-08-21T02:04:59;15.50;99.90
52565;DHT22;38460;53.106;7.004;2023-08-21T02:07:25;15.40;99.90
52565;DHT22;38460;53.106;7.004;2023-08-21T02:09:51;15.40;99.90
52565;DHT22;38460;53.106;7.004;2023-08-21T02:12:16;15.40;99.90
52565;DHT22;38460;53.106;7.004;2023-08-21T02:14:42;15.30;99.90
52565;DHT22;38460;53.106;7.004;2023-08-21T02:17:08;15.40;99.90
52565;DHT22;38460;53.106;7.004;2023-08-21T02:19:34;15.40;99.90
52565;DHT22;38460;53.106;7.004;2023-08-21T02:21:59;15.40;99.90
52565;DHT22;38460;53.106;7.004;2023-08-21T02:24:25;15.40;99.90
52565;DHT22;38460;53.106;7.004;2023-08-21T02:26:51;15.30;99.90
52565;DHT22;38460;53.106;7.004;2023-08-21T02:29:17;15.30;99.90
52565;DHT22;38460;53.106;7.004;2023-08-21T02:31:42;15.30;99.90
52565;DHT22;38460;53.106;7.004;2023-08-21T02:34:08;15.30;99.90
52565;DHT22;38460;53.106;7.004;2023-08-21T02:36:34;15.20;99.90
52565;DHT22;38460;53.106;7.004;2023-08-21T02:38:59;15.20;99.90
52565;DHT22;38460;53.106;7.004;2023-08-21T02:41:25;15.20;99.90
52565;DHT22;38460;53.106;7.004;2023-08-21T02:43:51;15.20;99.90
52565;DHT22;38460;53.106;7.004;2023-08-21T02:46:16;15.20;99.90
52565;DHT22;38460;53.106;7.004;2023-08-21T02:48:43;15.10;99.90
52565;DHT22;38460;53.106;7.004;2023-08-21T02:51:08;15.10;99.90
52565;DHT22;38460;53.106;7.004;2023-08-21T02:53:34;15.10;99.90
52565;DHT22;38460;53.106;7.004;2023-08-21T02:56:00;15.10;99.90
52565;DHT22;38460;53.106;7.004;2023-08-21T02:58:25;15.10;99.90
52565;DHT22;38460;53.106;7.004;2023-08-21T03:00:51;15.10;99.90
52565;DHT22;38460;53.106;7.004;2023-08-21T03:03:17;15.10;99.90
52565;DHT22;38460;53.106;7.004;2023-08-21T03:05:43;15.00;99.90
52565;DHT22;38460;53.106;7.004;2023-08-21T03:08:08;15.00;99.90
52565;DHT22;38460;53.106;7.004;2023-08-21T03:10:34;15.00;99.90
52565;DHT22;38460;53.106;7.004;2023-08-21T03:13:02;15.00;99.90
52565;DHT22;38460;53.106;7.004;2023-08-21T03:15:28;15.00;99.90
52565;DHT22;38460;53.106;7.004;2023-08-21T03:17:55;15.00;99.90
52565;DHT22;38460;53.106;7.004;2023-08-21T03:20:20;15.00;99.90
52565;DHT22;38460;53.106;7.004;2023-08-21T03:22:46;14.90;99.90
52565;DHT22;38460;53.106;7.004;2023-08-21T03:25:12;14.90;99.90
52565;DHT22;38460;53.106;7.004;2023-08-21T03:27:38;14.90;99.90
52565;DHT22;38460;53.106;7.004;2023-08-21T03:30:08;14.90;99.90
52565;DHT22;38460;53.106;7.004;2023-08-21T03:32:34;14.80;99.90
52565;DHT22;38460;53.106;7.004;2023-08-21T03:35:00;14.90;99.90
52565;DHT22;38460;53.106;7.004;2023-08-21T03:37:25;14.80;99.90
52565;DHT22;38460;53.106;7.004;2023-08-21T03:39:51;14.80;99.90
52565;DHT22;38460;53.106;7.004;2023-08-21T03:42:17;14.80;99.90
52565;DHT22;38460;53.106;7.004;2023-08-21T03:44:42;14.80;99.90
52565;DHT22;38460;53.106;7.004;2023-08-21T03:47:08;14.70;99.90
52565;DHT22;38460;53.106;7.004;2023-08-21T03:49:34;14.70;99.90
52565;DHT22;38460;53.106;7.004;2023-08-21T03:52:00;14.70;99.90
52565;DHT22;38460;53.106;7.004;2023-08-21T03:54:25;14.70;99.90
52565;DHT22;38460;53.106;7.004;2023-08-21T03:56:51;14.70;99.90
52565;DHT22;38460;53.106;7.004;2023-08-21T03:59:17;14.70;99.90
52565;DHT22;38460;53.106;7.004;2023-08-21T04:01:42;14.60;99.90
52565;DHT22;38460;53.106;7.004;2023-08-21T04:04:08;14.60;99.90
52565;DHT22;38460;53.106;7.004;2023-08-21T04:06:34;14.50;99.90
52565;DHT22;38460;53.106;7.004;2023-08-21T04:08:59;14.50;99.90
52565;DHT22;38460;53.106;7.004;2023-08-21T04:11:25;14.40;99.90
52565;DHT22;38460;53.106;7.004;2023-08-21T04:13:51;14.40;99.90
52565;DHT22;38460;53.106;7.004;2023-08-21T04:16:17;14.40;99.90
52565;DHT22;38460;53.106;7.004;2023-08-21T04:18:43;14.40;99.90
52565;DHT22;38460;53.106;7.004;2023-08-21T04:21:09;14.40;99.90
52565;DHT22;38460;53.106;7.004;2023-08-21T04:23:35;14.40;99.90
52565;DHT22;38460;53.106;7.004;2023-08-21T04:26:04;14.40;99.90
52565;DHT22;38460;53.106;7.004;2023-08-21T04:28:31;14.40;99.90
52565;DHT22;38460;53.106;7.004;2023-08-21T04:30:57;14.30;99.90
52565;DHT22;38460;53.106;7.004;2023-08-21T04:33:25;14.40;99.90
52565;DHT22;38460;53.106;7.004;2023-08-21T04:35:51;14.40;99.90
52565;DHT22;38460;53.106;7.004;2023-08-21T04:38:16;14.30;99.90
52565;DHT22;38460;53.106;7.004;2023-08-21T04:40:42;14.30;99.90
52565;DHT22;38460;53.106;7.004;2023-08-21T04:43:08;14.30;99.90
52565;DHT22;38460;53.106;7.004;2023-08-21T04:45:34;14.30;99.90
52565;DHT22;38460;53.106;7.004;2023-08-21T04:47:59;14.30;99.90
52565;DHT22;38460;53.106;7.004;2023-08-21T04:50:26;14.30;99.90
52565;DHT22;38460;53.106;7.004;2023-08-21T04:52:52;14.30;99.90
52565;DHT22;38460;53.106;7.004;2023-08-21T04:55:17;14.30;99.90
52565;DHT22;38460;53.106;7.004;2023-08-21T04:57:43;14.30;99.90
52565;DHT22;38460;53.106;7.004;2023-08-21T05:00:09;14.30;99.90
52565;DHT22;38460;53.106;7.004;2023-08-21T05:02:35;14.30;99.90
52565;DHT22;38460;53.106;7.004;2023-08-21T05:05:01;14.30;99.90
52565;DHT22;38460;53.106;7.004;2023-08-21T05:07:26;14.30;99.90
52565;DHT22;38460;53.106;7.004;2023-08-21T05:09:52;14.30;99.90
52565;DHT22;38460;53.106;7.004;2023-08-21T05:12:18;14.30;99.90
52565;DHT22;38460;53.106;7.004;2023-08-21T05:14:44;14.40;99.90
52565;DHT22;38460;53.106;7.004;2023-08-21T05:17:09;14.40;99.90
52565;DHT22;38460;53.106;7.004;2023-08-21T05:19:35;14.40;99.90
52565;DHT22;38460;53.106;7.004;2023-08-21T05:22:01;14.50;99.90
52565;DHT22;38460;53.106;7.004;2023-08-21T05:24:26;14.50;99.90
52565;DHT22;38460;53.106;7.004;2023-08-21T05:26:52;14.50;99.90
52565;DHT22;38460;53.106;7.004;2023-08-21T05:29:18;14.50;99.90
52565;DHT22;38460;53.106;7.004;2023-08-21T05:31:44;14.60;99.90
52565;DHT22;38460;53.106;7.004;2023-08-21T05:34:09;14.60;99.90
52565;DHT22;38460;53.106;7.004;2023-08-21T05:36:35;14.70;99.90
52565;DHT22;38460;53.106;7.004;2023-08-21T05:39:02;14.70;99.90
52565;DHT22;38460;53.106;7.004;2023-08-21T05:41:29;14.70;99.90
52565;DHT22;38460;53.106;7.004;2023-08-21T05:43:55;14.70;99.90
52565;DHT22;38460;53.106;7.004;2023-08-21T05:46:21;14.80;99.90
52565;DHT22;38460;53.106;7.004;2023-08-21T05:48:47;14.80;99.90
52565;DHT22;38460;53.106;7.004;2023-08-21T05:51:12;14.80;99.90
52565;DHT22;38460;53.106;7.004;2023-08-21T05:53:38;14.90;99.90
52565;DHT22;38460;53.106;7.004;2023-08-21T05:56:04;14.90;99.90
52565;DHT22;38460;53.106;7.004;2023-08-21T05:58:29;15.00;99.90
52565;DHT22;38460;53.106;7.004;2023-08-21T06:00:57;15.00;99.90
52565;DHT22;38460;53.106;7.004;2023-08-21T06:03:22;15.10;99.90
52565;DHT22;38460;53.106;7.004;2023-08-21T06:05:48;15.10;99.90
52565;DHT22;38460;53.106;7.004;2023-08-21T06:08:14;15.20;99.90
52565;DHT22;38460;53.106;7.004;2023-08-21T06:10:39;15.30;99.90
52565;DHT22;38460;53.106;7.004;2023-08-21T06:13:05;15.30;99.90
52565;DHT22;38460;53.106;7.004;2023-08-21T06:15:31;15.40;99.90
52565;DHT22;38460;53.106;7.004;2023-08-21T06:17:58;15.40;99.90
52565;DHT22;38460;53.106;7.004;2023-08-21T06:20:24;15.50;99.90
52565;DHT22;38460;53.106;7.004;2023-08-21T06:22:49;15.60;99.90
52565;DHT22;38460;53.106;7.004;2023-08-21T06:25:15;15.70;99.90
52565;DHT22;38460;53.106;7.004;2023-08-21T06:27:41;15.70;99.90
52565;DHT22;38460;53.106;7.004;2023-08-21T06:30:07;15.80;99.90
52565;DHT22;38460;53.106;7.004;2023-08-21T06:32:33;15.90;99.90
52565;DHT22;38460;53.106;7.004;2023-08-21T06:34:59;15.90;99.90
52565;DHT22;38460;53.106;7.004;2023-08-21T06:37:24;16.00;99.90
52565;DHT22;38460;53.106;7.004;2023-08-21T06:39:50;16.00;99.90
52565;DHT22;38460;53.106;7.004;2023-08-21T06:42:16;16.10;99.90
52565;DHT22;38460;53.106;7.004;2023-08-21T06:44:42;16.20;99.90
52565;DHT22;38460;53.106;7.004;2023-08-21T06:47:08;16.20;99.90
52565;DHT22;38460;53.106;7.004;2023-08-21T06:49:33;16.30;99.90
52565;DHT22;38460;53.106;7.004;2023-08-21T06:51:59;16.40;99.90
52565;DHT22;38460;53.106;7.004;2023-08-21T06:54:25;16.50;99.90
52565;DHT22;38460;53.106;7.004;2023-08-21T06:56:50;16.50;99.90
52565;DHT22;38460;53.106;7.004;2023-08-21T06:59:16;16.60;99.90
52565;DHT22;38460;53.106;7.004;2023-08-21T07:01:42;16.70;99.90
52565;DHT22;38460;53.106;7.004;2023-08-21T07:04:07;16.70;99.90
52565;DHT22;38460;53.106;7.004;2023-08-21T07:06:33;16.80;99.90
52565;DHT22;38460;53.106;7.004;2023-08-21T07:08:59;16.80;99.90
52565;DHT22;38460;53.106;7.004;2023-08-21T07:11:25;16.90;99.90
52565;DHT22;38460;53.106;7.004;2023-08-21T07:13:51;17.00;99.90
52565;DHT22;38460;53.106;7.004;2023-08-21T07:16:16;17.10;99.90
52565;DHT22;38460;53.106;7.004;2023-08-21T07:18:42;17.10;99.90
52565;DHT22;38460;53.106;7.004;2023-08-21T07:21:08;17.20;99.90
52565;DHT22;38460;53.106;7.004;2023-08-21T07:23:33;17.30;99.90
52565;DHT22;38460;53.106;7.004;2023-08-21T07:26:00;17.30;99.90
52565;DHT22;38460;53.106;7.004;2023-08-21T07:28:26;17.40;99.90
52565;DHT22;38460;53.106;7.004;2023-08-21T07:30:58;17.50;99.90
52565;DHT22;38460;53.106;7.004;2023-08-21T07:33:25;17.50;99.90
52565;DHT22;38460;53.106;7.004;2023-08-21T07:35:59;17.60;99.90
52565;DHT22;38460;53.106;7.004;2023-08-21T07:38:25;17.60;99.90
52565;DHT22;38460;53.106;7.004;2023-08-21T07:41:05;17.70;99.90
52565;DHT22;38460;53.106;7.004;2023-08-21T07:43:33;17.80;99.90
52565;DHT22;38460;53.106;7.004;2023-08-21T07:46:03;17.90;99.90
52565;DHT22;38460;53.106;7.004;2023-08-21T07:48:29;18.00;99.90
52565;DHT22;38460;53.106;7.004;2023-08-21T07:50:54;18.00;99.90
52565;DHT22;38460;53.106;7.004;2023-08-21T07:53:20;18.10;99.90
52565;DHT22;38460;53.106;7.004;2023-08-21T07:55:46;18.10;99.90
52565;DHT22;38460;53.106;7.004;2023-08-21T07:58:11;18.20;99.90
52565;DHT22;38460;53.106;7.004;2023-08-21T08:00:38;18.20;99.90
52565;DHT22;38460;53.106;7.004;2023-08-21T08:03:05;18.30;99.90
52565;DHT22;38460;53.106;7.004;2023-08-21T08:05:31;18.40;99.90
52565;DHT22;38460;53.106;7.004;2023-08-21T08:07:57;18.40;99.90
52565;DHT22;38460;53.106;7.004;2023-08-21T08:10:24;18.50;99.90
52565;DHT22;38460;53.106;7.004;2023-08-21T08:12:50;18.60;99.90
52565;DHT22;38460;53.106;7.004;2023-08-21T08:15:17;18.70;99.90
52565;DHT22;38460;53.106;7.004;2023-08-21T08:17:43;18.70;99.90
52565;DHT22;38460;53.106;7.004;2023-08-21T08:20:14;18.80;99.90
52565;DHT22;38460;53.106;7.004;2023-08-21T08:22:41;18.90;99.90
52565;DHT22;38460;53.106;7.004;2023-08-21T08:25:07;19.00;99.90
52565;DHT22;38460;53.106;7.004;2023-08-21T08:27:33;19.10;99.90
52565;DHT22;38460;53.106;7.004;2023-08-21T08:29:58;19.20;99.90
52565;DHT22;38460;53.106;7.004;2023-08-21T08:32:26;19.20;99.90
52565;DHT22;38460;53.106;7.004;2023-08-21T08:34:52;19.30;99.90
52565;DHT22;38460;53.106;7.004;2023-08-21T08:37:18;19.30;99.90
52565;DHT22;38460;53.106;7.004;2023-08-21T08:39:46;19.40;99.90
52565;DHT22;38460;53.106;7.004;2023-08-21T08:42:13;19.50;99.90
52565;DHT22;38460;53.106;7.004;2023-08-21T08:44:40;19.60;99.90
52565;DHT22;38460;53.106;7.004;2023-08-21T08:47:08;19.60;99.90
52565;DHT22;38460;53.106;7.004;2023-08-21T08:49:33;19.80;99.90
52565;DHT22;38460;53.106;7.004;2023-08-21T08:52:02;19.80;99.90
52565;DHT22;38460;53.106;7.004;2023-08-21T08:54:29;19.90;99.90
52565;DHT22;38460;53.106;7.004;2023-08-21T08:56:55;20.00;99.90
52565;DHT22;38460;53.106;7.004;2023-08-21T08:59:21;20.10;99.90
52565;DHT22;38460;53.106;7.004;2023-08-21T09:01:46;20.20;99.90
52565;DHT22;38460;53.106;7.004;2023-08-21T09:04:12;20.30;99.90
52565;DHT22;38460;53.106;7.004;2023-08-21T09:06:38;20.30;99.90
52565;DHT22;38460;53.106;7.004;2023-08-21T09:09:04;20.40;99.90
52565;DHT22;38460;53.106;7.004;2023-08-21T09:11:32;20.50;99.90
52565;DHT22;38460;53.106;7.004;2023-08-21T09:13:58;20.60;99.90
52565;DHT22;38460;53.106;7.004;2023-08-21T09:16:25;20.70;99.90
52565;DHT22;38460;53.106;7.004;2023-08-21T09:18:56;20.80;99.90
52565;DHT22;38460;53.106;7.004;2023-08-21T09:21:23;20.90;99.90
52565;DHT22;38460;53.106;7.004;2023-08-21T09:24:00;20.90;99.90
52565;DHT22;38460;53.106;7.004;2023-08-21T09:26:26;21.10;99.90
52565;DHT22;38460;53.106;7.004;2023-08-21T09:28:53;21.10;99.90
52565;DHT22;38460;53.106;7.004;2023-08-21T09:31:22;21.20;99.90
52565;DHT22;38460;53.106;7.004;2023-08-21T09:34:03;21.20;99.90
52565;DHT22;38460;53.106;7.004;2023-08-21T09:36:33;21.30;99.90
52565;DHT22;38460;53.106;7.004;2023-08-21T09:38:59;21.50;99.90
52565;DHT22;38460;53.106;7.004;2023-08-21T09:41:26;21.50;99.90
52565;DHT22;38460;53.106;7.004;2023-08-21T09:43:52;21.50;99.90
52565;DHT22;38460;53.106;7.004;2023-08-21T09:46:24;21.60;99.90
52565;DHT22;38460;53.106;7.004;2023-08-21T09:48:51;21.70;99.90
52565;DHT22;38460;53.106;7.004;2023-08-21T09:51:18;21.80;99.90
52565;DHT22;38460;53.106;7.004;2023-08-21T09:53:44;21.90;99.90
52565;DHT22;38460;53.106;7.004;2023-08-21T09:56:10;22.00;99.90
52565;DHT22;38460;53.106;7.004;2023-08-21T09:58:36;22.00;99.90
52565;DHT22;38460;53.106;7.004;2023-08-21T10:01:05;22.10;99.90
52565;DHT22;38460;53.106;7.004;2023-08-21T10:03:41;22.20;99.90
52565;DHT22;38460;53.106;7.004;2023-08-21T10:06:11;22.20;99.90
52565;DHT22;38460;53.106;7.004;2023-08-21T10:08:40;22.40;99.90
52565;DHT22;38460;53.106;7.004;2023-08-21T10:11:07;22.40;99.90
52565;DHT22;38460;53.106;7.004;2023-08-21T10:13:35;22.50;99.90
52565;DHT22;38460;53.106;7.004;2023-08-21T10:16:02;22.60;99.90
52565;DHT22;38460;53.106;7.004;2023-08-21T10:18:33;22.60;99.90
52565;DHT22;38460;53.106;7.004;2023-08-21T10:21:17;22.70;99.90
52565;DHT22;38460;53.106;7.004;2023-08-21T10:23:48;22.80;99.90
52565;DHT22;38460;53.106;7.004;2023-08-21T10:26:14;22.90;99.90
52565;DHT22;38460;53.106;7.004;2023-08-21T10:28:48;23.00;99.90
52565;DHT22;38460;53.106;7.004;2023-08-21T10:32:00;23.10;99.90
52565;DHT22;38460;53.106;7.004;2023-08-21T10:34:32;23.20;99.90
52565;DHT22;38460;53.106;7.004;2023-08-21T10:37:10;23.30;99.90
52565;DHT22;38460;53.106;7.004;2023-08-21T10:39:38;23.40;99.90
52565;DHT22;38460;53.106;7.004;2023-08-21T10:42:07;23.50;99.90
52565;DHT22;38460;53.106;7.004;2023-08-21T10:47:19;23.70;99.90
52565;DHT22;38460;53.106;7.004;2023-08-21T10:49:50;23.80;99.90
52565;DHT22;38460;53.106;7.004;2023-08-21T10:52:43;23.80;99.90
52565;DHT22;38460;53.106;7.004;2023-08-21T10:55:13;23.90;99.90
52565;DHT22;38460;53.106;7.004;2023-08-21T10:57:40;23.90;99.90
52565;DHT22;38460;53.106;7.004;2023-08-21T11:00:10;24.00;99.90
52565;DHT22;38460;53.106;7.004;2023-08-21T11:02:41;24.10;99.90
52565;DHT22;38460;53.106;7.004;2023-08-21T11:05:08;24.20;99.90
52565;DHT22;38460;53.106;7.004;2023-08-21T11:07:45;24.40;99.90
52565;DHT22;38460;53.106;7.004;2023-08-21T11:10:13;24.40;99.90
52565;DHT22;38460;53.106;7.004;2023-08-21T11:12:55;24.50;99.90
52565;DHT22;38460;53.106;7.004;2023-08-21T11:15:26;24.60;99.90
52565;DHT22;38460;53.106;7.004;2023-08-21T11:18:00;24.60;99.90
52565;DHT22;38460;53.106;7.004;2023-08-21T11:20:33;24.70;99.90
52565;DHT22;38460;53.106;7.004;2023-08-21T11:23:01;24.80;99.90
52565;DHT22;38460;53.106;7.004;2023-08-21T11:25:29;24.90;99.90
52565;DHT22;38460;53.106;7.004;2023-08-21T11:27:55;24.90;99.90
52565;DHT22;38460;53.106;7.004;2023-08-21T11:30:24;25.00;99.90
52565;DHT22;38460;53.106;7.004;2023-08-21T11:35:31;25.20;99.90
52565;DHT22;38460;53.106;7.004;2023-08-21T11:37:57;25.30;99.90
52565;DHT22;38460;53.106;7.004;2023-08-21T11:40:23;25.40;99.90
52565;DHT22;38460;53.106;7.004;2023-08-21T11:42:51;25.50;99.90
52565;DHT22;38460;53.106;7.004;2023-08-21T11:45:20;25.60;99.90
52565;DHT22;38460;53.106;7.004;2023-08-21T11:47:46;25.50;99.90
52565;DHT22;38460;53.106;7.004;2023-08-21T11:50:14;25.50;99.90
52565;DHT22;38460;53.106;7.004;2023-08-21T11:52:43;25.60;99.90
52565;DHT22;38460;53.106;7.004;2023-08-21T11:55:09;25.70;99.90
52565;DHT22;38460;53.106;7.004;2023-08-21T11:57:52;25.80;99.90
52565;DHT22;38460;53.106;7.004;2023-08-21T12:00:18;25.90;99.90
52565;DHT22;38460;53.106;7.004;2023-08-21T12:02:55;26.10;99.90
52565;DHT22;38460;53.106;7.004;2023-08-21T12:05:24;26.30;99.90
52565;DHT22;38460;53.106;7.004;2023-08-21T12:07:50;26.30;99.90
52565;DHT22;38460;53.106;7.004;2023-08-21T12:10:30;26.40;99.90
52565;DHT22;38460;53.106;7.004;2023-08-21T12:12:56;26.40;99.40
52565;DHT22;38460;53.106;7.004;2023-08-21T12:15:22;26.50;99.80
52565;DHT22;38460;53.106;7.004;2023-08-21T12:17:47;26.60;99.50
52565;DHT22;38460;53.106;7.004;2023-08-21T12:20:13;26.70;99.20
52565;DHT22;38460;53.106;7.004;2023-08-21T12:22:39;26.50;98.70
52565;DHT22;38460;53.106;7.004;2023-08-21T12:25:06;26.50;99.10
52565;DHT22;38460;53.106;7.004;2023-08-21T12:27:32;26.50;98.90
52565;DHT22;38460;53.106;7.004;2023-08-21T12:29:58;26.60;99.20
52565;DHT22;38460;53.106;7.004;2023-08-21T12:32:24;26.60;97.90
52565;DHT22;38460;53.106;7.004;2023-08-21T12:34:49;26.70;98.30
52565;DHT22;38460;53.106;7.004;2023-08-21T12:37:15;26.70;98.50
52565;DHT22;38460;53.106;7.004;2023-08-21T12:39:41;26.70;98.10
52565;DHT22;38460;53.106;7.004;2023-08-21T12:42:07;26.80;98.30
52565;DHT22;38460;53.106;7.004;2023-08-21T12:44:33;26.70;98.10
52565;DHT22;38460;53.106;7.004;2023-08-21T12:46:59;26.60;98.20
52565;DHT22;38460;53.106;7.004;2023-08-21T12:49:25;26.60;97.70
52565;DHT22;38460;53.106;7.004;2023-08-21T12:51:51;26.60;97.50
52565;DHT22;38460;53.106;7.004;2023-08-21T12:54:17;26.70;97.40
52565;DHT22;38460;53.106;7.004;2023-08-21T12:56:42;26.90;97.70
52565;DHT22;38460;53.106;7.004;2023-08-21T12:59:08;27.00;97.60
52565;DHT22;38460;53.106;7.004;2023-08-21T13:01:34;27.10;97.20
52565;DHT22;38460;53.106;7.004;2023-08-21T13:04:01;27.20;97.40
52565;DHT22;38460;53.106;7.004;2023-08-21T13:06:28;27.40;96.90
52565;DHT22;38460;53.106;7.004;2023-08-21T13:08:54;27.50;96.20
52565;DHT22;38460;53.106;7.004;2023-08-21T13:11:20;27.60;96.50
52565;DHT22;38460;53.106;7.004;2023-08-21T13:13:45;27.70;96.60
52565;DHT22;38460;53.106;7.004;2023-08-21T13:16:11;27.80;96.10
52565;DHT22;38460;53.106;7.004;2023-08-21T13:18:37;27.90;95.80
52565;DHT22;38460;53.106;7.004;2023-08-21T13:21:03;28.00;95.90
52565;DHT22;38460;53.106;7.004;2023-08-21T13:23:29;28.10;95.90
52565;DHT22;38460;53.106;7.004;2023-08-21T13:25:56;28.20;95.40
52565;DHT22;38460;53.106;7.004;2023-08-21T13:28:23;28.30;94.50
52565;DHT22;38460;53.106;7.004;2023-08-21T13:30:49;28.40;94.50
52565;DHT22;38460;53.106;7.004;2023-08-21T13:33:15;28.30;94.10
52565;DHT22;38460;53.106;7.004;2023-08-21T13:35:44;28.40;94.20
52565;DHT22;38460;53.106;7.004;2023-08-21T13:38:10;28.40;93.70
52565;DHT22;38460;53.106;7.004;2023-08-21T13:40:36;28.50;92.90
52565;DHT22;38460;53.106;7.004;2023-08-21T13:43:02;28.60;93.40
52565;DHT22;38460;53.106;7.004;2023-08-21T13:45:28;28.70;93.30
52565;DHT22;38460;53.106;7.004;2023-08-21T13:47:54;28.80;93.10
52565;DHT22;38460;53.106;7.004;2023-08-21T13:50:20;28.90;92.40
52565;DHT22;38460;53.106;7.004;2023-08-21T13:52:47;29.00;92.50
52565;DHT22;38460;53.106;7.004;2023-08-21T13:55:13;29.10;91.70
52565;DHT22;38460;53.106;7.004;2023-08-21T13:57:40;29.10;91.10
52565;DHT22;38460;53.106;7.004;2023-08-21T14:00:07;29.10;91.40
52565;DHT22;38460;53.106;7.004;2023-08-21T14:02:37;29.00;91.60
52565;DHT22;38460;53.106;7.004;2023-08-21T14:05:03;28.90;91.70
52565;DHT22;38460;53.106;7.004;2023-08-21T14:07:31;28.60;91.60
52565;DHT22;38460;53.106;7.004;2023-08-21T14:09:57;28.30;91.60
52565;DHT22;38460;53.106;7.004;2023-08-21T14:12:22;28.10;91.60
52565;DHT22;38460;53.106;7.004;2023-08-21T14:14:48;27.80;91.90
52565;DHT22;38460;53.106;7.004;2023-08-21T14:17:14;27.70;92.10
52565;DHT22;38460;53.106;7.004;2023-08-21T14:19:41;27.80;92.40
52565;DHT22;38460;53.106;7.004;2023-08-21T14:22:07;28.10;92.30
52565;DHT22;38460;53.106;7.004;2023-08-21T14:24:33;28.30;91.90
52565;DHT22;38460;53.106;7.004;2023-08-21T14:26:58;28.50;92.30
52565;DHT22;38460;53.106;7.004;2023-08-21T14:29:24;28.60;91.70
52565;DHT22;38460;53.106;7.004;2023-08-21T14:31:50;28.80;91.30
52565;DHT22;38460;53.106;7.004;2023-08-21T14:34:19;28.90;90.60
52565;DHT22;38460;53.106;7.004;2023-08-21T14:36:47;28.90;90.30
52565;DHT22;38460;53.106;7.004;2023-08-21T14:39:13;28.80;89.20
52565;DHT22;38460;53.106;7.004;2023-08-21T14:41:41;28.90;90.20
52565;DHT22;38460;53.106;7.004;2023-08-21T14:44:07;28.90;89.70
52565;DHT22;38460;53.106;7.004;2023-08-21T14:46:33;29.10;90.50
52565;DHT22;38460;53.106;7.004;2023-08-21T14:49:00;29.20;90.80
52565;DHT22;38460;53.106;7.004;2023-08-21T14:51:26;29.30;91.00
52565;DHT22;38460;53.106;7.004;2023-08-21T14:53:51;29.20;90.20
52565;DHT22;38460;53.106;7.004;2023-08-21T14:56:18;28.90;90.30
52565;DHT22;38460;53.106;7.004;2023-08-21T14:58:44;28.80;90.70
52565;DHT22;38460;53.106;7.004;2023-08-21T15:01:13;28.80;90.80
52565;DHT22;38460;53.106;7.004;2023-08-21T15:03:39;28.90;91.40
52565;DHT22;38460;53.106;7.004;2023-08-21T15:06:05;28.90;91.10
52565;DHT22;38460;53.106;7.004;2023-08-21T15:08:31;29.00;90.40
52565;DHT22;38460;53.106;7.004;2023-08-21T15:10:57;29.00;89.70
52565;DHT22;38460;53.106;7.004;2023-08-21T15:13:23;28.90;89.10
52565;DHT22;38460;53.106;7.004;2023-08-21T15:15:48;28.90;89.70
52565;DHT22;38460;53.106;7.004;2023-08-21T15:18:14;28.90;88.80
52565;DHT22;38460;53.106;7.004;2023-08-21T15:20:40;28.90;88.00
52565;DHT22;38460;53.106;7.004;2023-08-21T15:23:05;28.80;87.60
52565;DHT22;38460;53.106;7.004;2023-08-21T15:25:31;28.80;87.00
52565;DHT22;38460;53.106;7.004;2023-08-21T15:27:57;28.60;87.20
52565;DHT22;38460;53.106;7.004;2023-08-21T15:30:23;28.60;88.70
52565;DHT22;38460;53.106;7.004;2023-08-21T15:32:48;28.50;89.90
52565;DHT22;38460;53.106;7.004;2023-08-21T15:35:15;28.40;89.70